sensor_id;sensor_type;location;lat;lon;timestamp;P1;durP1;ratioP1;P2;durP2;ratioP2
261;SDS011;114;48.260;10.988;2022-07-06T00:01:42;1.97;;;1.23;;
261;SDS011;114;48.260;10.988;2022-07-06T00:04:07;2.30;;;1.50;;
261;SDS011;114;48.260;10.988;2022-07-06T00:06:34;2.70;;;1.77;;
261;SDS011;114;48.260;10.988;2022-07-06T00:09:00;1.63;;;1.43;;
261;SDS011;114;48.260;10.988;2022-07-06T00:11:26;4.20;;;1.47;;
261;SDS011;114;48.260;10.988;2022-07-06T00:13:52;1.63;;;1.50;;
261;SDS011;114;48.260;10.988;2022-07-06T00:16:18;3.13;;;1.43;;
261;SDS011;114;48.260;10.988;2022-07-06T00:18:45;2.20;;;1.50;;
261;SDS011;114;48.260;10.988;2022-07-06T00:21:11;3.73;;;1.50;;
261;SDS011;114;48.260;10.988;2022-07-06T00:23:38;4.30;;;1.73;;
261;SDS011;114;48.260;10.988;2022-07-06T00:26:04;1.70;;;1.60;;
261;SDS011;114;48.260;10.988;2022-07-06T00:28:31;2.60;;;1.50;;
261;SDS011;114;48.260;10.988;2022-07-06T00:30:57;2.03;;;1.90;;
261;SDS011;114;48.260;10.988;2022-07-06T00:33:23;2.53;;;1.93;;
261;SDS011;114;48.260;10.988;2022-07-06T00:35:49;6.37;;;1.90;;
261;SDS011;114;48.260;10.988;2022-07-06T00:38:15;12.70;;;1.77;;
261;SDS011;114;48.260;10.988;2022-07-06T00:40:41;3.63;;;2.40;;
261;SDS011;114;48.260;10.988;2022-07-06T00:43:07;1.53;;;1.43;;
261;SDS011;114;48.260;10.988;2022-07-06T00:45:33;4.53;;;2.40;;
261;SDS011;114;48.260;10.988;2022-07-06T00:47:59;4.10;;;2.80;;
261;SDS011;114;48.260;10.988;2022-07-06T00:50:25;2.00;;;1.70;;
261;SDS011;114;48.260;10.988;2022-07-06T00:52:54;6.13;;;2.33;;
261;SDS011;114;48.260;10.988;2022-07-06T00:55:23;7.20;;;2.00;;
261;SDS011;114;48.260;10.988;2022-07-06T00:57:51;7.93;;;1.90;;
261;SDS011;114;48.260;10.988;2022-07-06T01:00:19;2.50;;;1.80;;
261;SDS011;114;48.260;10.988;2022-07-06T01:02:48;8.13;;;2.10;;
261;SDS011;114;48.260;10.988;2022-07-06T01:05:15;1.63;;;1.53;;
261;SDS011;114;48.260;10.988;2022-07-06T01:07:43;4.07;;;1.80;;
261;SDS011;114;48.260;10.988;2022-07-06T01:10:11;1.87;;;1.60;;
261;SDS011;114;48.260;10.988;2022-07-06T01:12:39;2.00;;;1.77;;
261;SDS011;114;48.260;10.988;2022-07-06T01:15:06;2.83;;;2.10;;
261;SDS011;114;48.260;10.988;2022-07-06T01:17:34;2.70;;;1.87;;
261;SDS011;114;48.260;10.988;2022-07-06T01:20:13;3.10;;;1.70;;
261;SDS011;114;48.260;10.988;2022-07-06T01:22:44;4.10;;;1.30;;
261;SDS011;114;48.260;10.988;2022-07-06T01:25:12;1.77;;;1.67;;
261;SDS011;114;48.260;10.988;2022-07-06T01:27:39;3.73;;;1.60;;
261;SDS011;114;48.260;10.988;2022-07-06T01:30:07;2.03;;;1.90;;
261;SDS011;114;48.260;10.988;2022-07-06T01:32:39;1.80;;;1.70;;
261;SDS011;114;48.260;10.988;2022-07-06T01:35:06;2.63;;;2.13;;
261;SDS011;114;48.260;10.988;2022-07-06T01:37:34;1.73;;;1.63;;
261;SDS011;114;48.260;10.988;2022-07-06T01:40:00;2.70;;;1.67;;
261;SDS011;114;48.260;10.988;2022-07-06T01:42:27;3.23;;;1.70;;
261;SDS011;114;48.260;10.988;2022-07-06T01:44:54;1.90;;;1.80;;
261;SDS011;114;48.260;10.988;2022-07-06T01:47:20;2.60;;;2.00;;
261;SDS011;114;48.260;10.988;2022-07-06T01:49:47;3.10;;;1.47;;
261;SDS011;114;48.260;10.988;2022-07-06T01:52:13;6.03;;;1.60;;
261;SDS011;114;48.260;10.988;2022-07-06T01:54:39;7.10;;;2.30;;
261;SDS011;114;48.260;10.988;2022-07-06T01:57:05;1.97;;;1.87;;
261;SDS011;114;48.260;10.988;2022-07-06T01:59:31;2.60;;;1.60;;
261;SDS011;114;48.260;10.988;2022-07-06T02:01:56;3.03;;;1.47;;
261;SDS011;114;48.260;10.988;2022-07-06T02:04:23;2.80;;;1.67;;
261;SDS011;114;48.260;10.988;2022-07-06T02:06:48;1.50;;;1.40;;
261;SDS011;114;48.260;10.988;2022-07-06T02:09:14;1.80;;;1.70;;
261;SDS011;114;48.260;10.988;2022-07-06T02:11:41;2.70;;;1.77;;
261;SDS011;114;48.260;10.988;2022-07-06T02:14:07;2.10;;;1.53;;
261;SDS011;114;48.260;10.988;2022-07-06T02:16:34;2.23;;;2.13;;
261;SDS011;114;48.260;10.988;2022-07-06T02:19:00;1.47;;;1.40;;
261;SDS011;114;48.260;10.988;2022-07-06T02:21:26;4.10;;;2.50;;
261;SDS011;114;48.260;10.988;2022-07-06T02:23:52;4.20;;;2.20;;
261;SDS011;114;48.260;10.988;2022-07-06T02:26:18;2.40;;;1.87;;
261;SDS011;114;48.260;10.988;2022-07-06T02:28:44;1.87;;;1.77;;
261;SDS011;114;48.260;10.988;2022-07-06T02:31:12;1.83;;;1.73;;
261;SDS011;114;48.260;10.988;2022-07-06T02:33:39;7.20;;;1.70;;
261;SDS011;114;48.260;10.988;2022-07-06T02:36:06;2.90;;;1.90;;
261;SDS011;114;48.260;10.988;2022-07-06T02:38:32;2.03;;;1.93;;
261;SDS011;114;48.260;10.988;2022-07-06T02:40:58;1.60;;;1.50;;
261;SDS011;114;48.260;10.988;2022-07-06T02:43:24;2.43;;;2.10;;
261;SDS011;114;48.260;10.988;2022-07-06T02:45:50;2.03;;;1.93;;
261;SDS011;114;48.260;10.988;2022-07-06T02:48:16;2.07;;;1.97;;
261;SDS011;114;48.260;10.988;2022-07-06T02:50:44;2.77;;;2.13;;
261;SDS011;114;48.260;10.988;2022-07-06T02:53:10;3.70;;;1.90;;
261;SDS011;114;48.260;10.988;2022-07-06T02:55:37;2.10;;;2.00;;
261;SDS011;114;48.260;10.988;2022-07-06T02:58:03;3.00;;;2.57;;
261;SDS011;114;48.260;10.988;2022-07-06T03:00:29;2.63;;;2.43;;
261;SDS011;114;48.260;10.988;2022-07-06T03:02:55;2.07;;;1.97;;
261;SDS011;114;48.260;10.988;2022-07-06T03:05:21;2.23;;;2.00;;
261;SDS011;114;48.260;10.988;2022-07-06T03:07:47;5.30;;;2.37;;
261;SDS011;114;48.260;10.988;2022-07-06T03:10:12;4.53;;;2.67;;
261;SDS011;114;48.260;10.988;2022-07-06T03:12:39;2.73;;;2.47;;
261;SDS011;114;48.260;10.988;2022-07-06T03:15:05;5.30;;;2.27;;
261;SDS011;114;48.260;10.988;2022-07-06T03:17:34;2.87;;;2.60;;
261;SDS011;114;48.260;10.988;2022-07-06T03:20:00;2.87;;;2.60;;
261;SDS011;114;48.260;10.988;2022-07-06T03:22:26;9.43;;;2.53;;
261;SDS011;114;48.260;10.988;2022-07-06T03:24:52;3.30;;;2.43;;
261;SDS011;114;48.260;10.988;2022-07-06T03:27:18;10.03;;;2.63;;
261;SDS011;114;48.260;10.988;2022-07-06T03:29:44;2.87;;;2.67;;
261;SDS011;114;48.260;10.988;2022-07-06T03:32:10;3.83;;;2.40;;
261;SDS011;114;48.260;10.988;2022-07-06T03:34:36;4.50;;;2.93;;
261;SDS011;114;48.260;10.988;2022-07-06T03:37:01;2.57;;;2.30;;
261;SDS011;114;48.260;10.988;2022-07-06T03:39:27;2.53;;;2.37;;
261;SDS011;114;48.260;10.988;2022-07-06T03:41:53;3.00;;;2.80;;
261;SDS011;114;48.260;10.988;2022-07-06T03:44:19;4.97;;;2.40;;
261;SDS011;114;48.260;10.988;2022-07-06T03:46:45;5.93;;;3.50;;
261;SDS011;114;48.260;10.988;2022-07-06T03:49:11;4.97;;;4.10;;
261;SDS011;114;48.260;10.988;2022-07-06T03:51:37;7.87;;;5.23;;
261;SDS011;114;48.260;10.988;2022-07-06T03:54:03;7.90;;;5.37;;
261;SDS011;114;48.260;10.988;2022-07-06T03:56:29;9.13;;;5.30;;
261;SDS011;114;48.260;10.988;2022-07-06T03:58:58;11.23;;;7.40;;
261;SDS011;114;48.260;10.988;2022-07-06T04:01:25;12.03;;;6.63;;
261;SDS011;114;48.260;10.988;2022-07-06T04:03:52;3.17;;;2.97;;
261;SDS011;114;48.260;10.988;2022-07-06T04:06:18;3.20;;;3.00;;
261;SDS011;114;48.260;10.988;2022-07-06T04:08:44;3.33;;;3.00;;
261;SDS011;114;48.260;10.988;2022-07-06T04:11:10;2.53;;;2.30;;
261;SDS011;114;48.260;10.988;2022-07-06T04:13:36;2.73;;;2.53;;
261;SDS011;114;48.260;10.988;2022-07-06T04:16:04;2.33;;;2.13;;
261;SDS011;114;48.260;10.988;2022-07-06T04:18:31;4.43;;;2.30;;
261;SDS011;114;48.260;10.988;2022-07-06T04:20:57;3.00;;;2.33;;
261;SDS011;114;48.260;10.988;2022-07-06T04:23:24;2.57;;;2.37;;
261;SDS011;114;48.260;10.988;2022-07-06T04:25:50;2.60;;;2.50;;
261;SDS011;114;48.260;10.988;2022-07-06T04:28:16;2.57;;;2.37;;
261;SDS011;114;48.260;10.988;2022-07-06T04:30:42;4.00;;;2.53;;
261;SDS011;114;48.260;10.988;2022-07-06T04:33:08;2.50;;;2.30;;
261;SDS011;114;48.260;10.988;2022-07-06T04:35:34;2.20;;;2.00;;
261;SDS011;114;48.260;10.988;2022-07-06T04:38:00;3.87;;;2.60;;
261;SDS011;114;48.260;10.988;2022-07-06T04:40:26;2.90;;;2.70;;
261;SDS011;114;48.260;10.988;2022-07-06T04:42:52;2.67;;;2.03;;
261;SDS011;114;48.260;10.988;2022-07-06T04:45:19;3.37;;;3.07;;
261;SDS011;114;48.260;10.988;2022-07-06T04:47:45;2.10;;;2.00;;
261;SDS011;114;48.260;10.988;2022-07-06T04:50:11;1.80;;;1.70;;
261;SDS011;114;48.260;10.988;2022-07-06T04:52:37;4.80;;;1.80;;
261;SDS011;114;48.260;10.988;2022-07-06T04:55:03;1.87;;;1.70;;
261;SDS011;114;48.260;10.988;2022-07-06T04:57:31;2.80;;;1.90;;
261;SDS011;114;48.260;10.988;2022-07-06T04:59:57;3.67;;;2.07;;
261;SDS011;114;48.260;10.988;2022-07-06T05:02:23;3.43;;;2.03;;
261;SDS011;114;48.260;10.988;2022-07-06T05:04:49;20.93;;;2.30;;
261;SDS011;114;48.260;10.988;2022-07-06T05:07:15;4.80;;;2.10;;
261;SDS011;114;48.260;10.988;2022-07-06T05:09:40;3.80;;;1.80;;
261;SDS011;114;48.260;10.988;2022-07-06T05:12:06;2.67;;;2.07;;
261;SDS011;114;48.260;10.988;2022-07-06T05:14:33;7.93;;;1.60;;
261;SDS011;114;48.260;10.988;2022-07-06T05:16:59;6.53;;;1.90;;
261;SDS011;114;48.260;10.988;2022-07-06T05:19:25;5.00;;;2.30;;
261;SDS011;114;48.260;10.988;2022-07-06T05:21:50;4.40;;;1.93;;
261;SDS011;114;48.260;10.988;2022-07-06T05:24:16;1.80;;;1.70;;
261;SDS011;114;48.260;10.988;2022-07-06T05:26:45;5.30;;;2.10;;
261;SDS011;114;48.260;10.988;2022-07-06T05:29:12;9.17;;;1.83;;
261;SDS011;114;48.260;10.988;2022-07-06T05:31:37;3.97;;;1.73;;
261;SDS011;114;48.260;10.988;2022-07-06T05:34:03;4.20;;;1.73;;
261;SDS011;114;48.260;10.988;2022-07-06T05:36:29;4.30;;;2.17;;
261;SDS011;114;48.260;10.988;2022-07-06T05:38:55;7.33;;;2.00;;
261;SDS011;114;48.260;10.988;2022-07-06T05:41:21;7.03;;;1.90;;
261;SDS011;114;48.260;10.988;2022-07-06T05:43:47;2.70;;;1.67;;
261;SDS011;114;48.260;10.988;2022-07-06T05:46:12;3.10;;;1.80;;
261;SDS011;114;48.260;10.988;2022-07-06T05:48:39;2.07;;;1.67;;
261;SDS011;114;48.260;10.988;2022-07-06T05:51:23;14.03;;;2.40;;
261;SDS011;114;48.260;10.988;2022-07-06T05:53:50;2.03;;;1.80;;
261;SDS011;114;48.260;10.988;2022-07-06T05:56:16;7.30;;;1.80;;
261;SDS011;114;48.260;10.988;2022-07-06T05:58:42;3.80;;;2.10;;
261;SDS011;114;48.260;10.988;2022-07-06T06:01:08;5.83;;;1.47;;
261;SDS011;114;48.260;10.988;2022-07-06T06:03:34;2.50;;;1.80;;
261;SDS011;114;48.260;10.988;2022-07-06T06:06:00;3.00;;;1.83;;
261;SDS011;114;48.260;10.988;2022-07-06T06:08:26;5.70;;;1.50;;
261;SDS011;114;48.260;10.988;2022-07-06T06:10:52;1.47;;;1.37;;
261;SDS011;114;48.260;10.988;2022-07-06T06:13:20;2.70;;;1.57;;
261;SDS011;114;48.260;10.988;2022-07-06T06:15:46;4.33;;;1.80;;
261;SDS011;114;48.260;10.988;2022-07-06T06:18:12;3.40;;;1.60;;
261;SDS011;114;48.260;10.988;2022-07-06T06:20:38;2.40;;;2.00;;
261;SDS011;114;48.260;10.988;2022-07-06T06:23:04;9.93;;;1.97;;
261;SDS011;114;48.260;10.988;2022-07-06T06:25:33;2.37;;;1.90;;
261;SDS011;114;48.260;10.988;2022-07-06T06:28:04;2.03;;;1.83;;
261;SDS011;114;48.260;10.988;2022-07-06T06:30:31;1.53;;;1.27;;
261;SDS011;114;48.260;10.988;2022-07-06T06:33:14;9.80;;;1.53;;
261;SDS011;114;48.260;10.988;2022-07-06T06:35:43;3.60;;;1.77;;
261;SDS011;114;48.260;10.988;2022-07-06T06:38:10;5.90;;;1.87;;
261;SDS011;114;48.260;10.988;2022-07-06T06:40:36;2.70;;;1.40;;
261;SDS011;114;48.260;10.988;2022-07-06T06:43:03;1.50;;;1.40;;
261;SDS011;114;48.260;10.988;2022-07-06T06:45:29;2.90;;;1.93;;
261;SDS011;114;48.260;10.988;2022-07-06T06:47:55;1.60;;;1.50;;
261;SDS011;114;48.260;10.988;2022-07-06T06:50:21;1.70;;;1.60;;
261;SDS011;114;48.260;10.988;2022-07-06T06:52:50;5.73;;;2.07;;
261;SDS011;114;48.260;10.988;2022-07-06T06:55:16;3.53;;;1.80;;
261;SDS011;114;48.260;10.988;2022-07-06T06:57:43;4.30;;;1.60;;
261;SDS011;114;48.260;10.988;2022-07-06T07:00:09;8.03;;;1.60;;
261;SDS011;114;48.260;10.988;2022-07-06T07:02:35;3.60;;;2.30;;
261;SDS011;114;48.260;10.988;2022-07-06T07:05:02;3.13;;;1.57;;
261;SDS011;114;48.260;10.988;2022-07-06T07:07:28;1.67;;;1.43;;
261;SDS011;114;48.260;10.988;2022-07-06T07:09:54;5.30;;;1.40;;
261;SDS011;114;48.260;10.988;2022-07-06T07:12:19;5.13;;;1.70;;
261;SDS011;114;48.260;10.988;2022-07-06T07:14:45;1.57;;;1.47;;
261;SDS011;114;48.260;10.988;2022-07-06T07:17:12;7.00;;;1.80;;
261;SDS011;114;48.260;10.988;2022-07-06T07:19:38;5.13;;;1.80;;
261;SDS011;114;48.260;10.988;2022-07-06T07:22:04;2.13;;;1.87;;
261;SDS011;114;48.260;10.988;2022-07-06T07:24:30;5.60;;;1.80;;
261;SDS011;114;48.260;10.988;2022-07-06T07:26:56;5.00;;;1.70;;
261;SDS011;114;48.260;10.988;2022-07-06T07:29:22;3.03;;;1.73;;
261;SDS011;114;48.260;10.988;2022-07-06T07:31:47;5.97;;;1.80;;
261;SDS011;114;48.260;10.988;2022-07-06T07:34:13;10.20;;;2.67;;
261;SDS011;114;48.260;10.988;2022-07-06T07:36:39;7.93;;;1.80;;
261;SDS011;114;48.260;10.988;2022-07-06T07:39:04;2.23;;;1.67;;
261;SDS011;114;48.260;10.988;2022-07-06T07:41:30;1.67;;;1.57;;
261;SDS011;114;48.260;10.988;2022-07-06T07:43:56;6.03;;;1.90;;
261;SDS011;114;48.260;10.988;2022-07-06T07:46:22;2.73;;;1.93;;
261;SDS011;114;48.260;10.988;2022-07-06T07:48:48;5.73;;;1.60;;
261;SDS011;114;48.260;10.988;2022-07-06T07:51:13;4.70;;;1.80;;
261;SDS011;114;48.260;10.988;2022-07-06T07:53:39;4.00;;;1.97;;
261;SDS011;114;48.260;10.988;2022-07-06T07:56:05;2.90;;;1.43;;
261;SDS011;114;48.260;10.988;2022-07-06T07:58:31;7.87;;;2.00;;
261;SDS011;114;48.260;10.988;2022-07-06T08:00:57;22.33;;;3.20;;
261;SDS011;114;48.260;10.988;2022-07-06T08:03:23;5.80;;;2.13;;
261;SDS011;114;48.260;10.988;2022-07-06T08:05:50;8.40;;;2.10;;
261;SDS011;114;48.260;10.988;2022-07-06T08:08:16;5.07;;;2.00;;
261;SDS011;114;48.260;10.988;2022-07-06T08:10:42;5.90;;;2.07;;
261;SDS011;114;48.260;10.988;2022-07-06T08:13:08;4.90;;;1.80;;
261;SDS011;114;48.260;10.988;2022-07-06T08:15:36;5.23;;;1.87;;
261;SDS011;114;48.260;10.988;2022-07-06T08:18:03;5.73;;;2.00;;
261;SDS011;114;48.260;10.988;2022-07-06T08:20:29;2.33;;;2.07;;
261;SDS011;114;48.260;10.988;2022-07-06T08:22:55;9.33;;;2.20;;
261;SDS011;114;48.260;10.988;2022-07-06T08:25:24;4.87;;;1.87;;
261;SDS011;114;48.260;10.988;2022-07-06T08:27:50;2.03;;;1.60;;
261;SDS011;114;48.260;10.988;2022-07-06T08:30:15;6.53;;;1.93;;
261;SDS011;114;48.260;10.988;2022-07-06T08:32:41;4.53;;;1.73;;
261;SDS011;114;48.260;10.988;2022-07-06T08:35:08;10.50;;;2.00;;
261;SDS011;114;48.260;10.988;2022-07-06T08:37:35;6.70;;;1.97;;
261;SDS011;114;48.260;10.988;2022-07-06T08:40:01;4.83;;;2.30;;
261;SDS011;114;48.260;10.988;2022-07-06T08:42:31;2.90;;;1.73;;
261;SDS011;114;48.260;10.988;2022-07-06T08:44:59;8.77;;;2.50;;
261;SDS011;114;48.260;10.988;2022-07-06T08:47:32;22.33;;;2.40;;
261;SDS011;114;48.260;10.988;2022-07-06T08:50:03;6.43;;;2.27;;
261;SDS011;114;48.260;10.988;2022-07-06T08:52:30;10.67;;;2.17;;
261;SDS011;114;48.260;10.988;2022-07-06T08:54:56;3.90;;;2.37;;
261;SDS011;114;48.260;10.988;2022-07-06T08:57:22;15.93;;;2.23;;
261;SDS011;114;48.260;10.988;2022-07-06T08:59:50;5.27;;;1.60;;
261;SDS011;114;48.260;10.988;2022-07-06T09:02:16;7.60;;;1.70;;
261;SDS011;114;48.260;10.988;2022-07-06T09:04:43;7.00;;;2.13;;
261;SDS011;114;48.260;10.988;2022-07-06T09:07:09;6.40;;;2.20;;
261;SDS011;114;48.260;10.988;2022-07-06T09:09:36;7.43;;;1.67;;
261;SDS011;114;48.260;10.988;2022-07-06T09:12:03;8.50;;;1.83;;
261;SDS011;114;48.260;10.988;2022-07-06T09:14:33;13.97;;;1.90;;
261;SDS011;114;48.260;10.988;2022-07-06T09:17:03;3.83;;;2.03;;
261;SDS011;114;48.260;10.988;2022-07-06T09:19:31;13.17;;;2.30;;
261;SDS011;114;48.260;10.988;2022-07-06T09:21:59;3.97;;;1.73;;
261;SDS011;114;48.260;10.988;2022-07-06T09:24:25;9.00;;;2.20;;
261;SDS011;114;48.260;10.988;2022-07-06T09:26:55;1.80;;;1.70;;
261;SDS011;114;48.260;10.988;2022-07-06T09:29:29;2.53;;;1.80;;
261;SDS011;114;48.260;10.988;2022-07-06T09:31:58;5.17;;;1.80;;
261;SDS011;114;48.260;10.988;2022-07-06T09:34:25;6.93;;;1.80;;
261;SDS011;114;48.260;10.988;2022-07-06T09:37:04;1.63;;;1.50;;
261;SDS011;114;48.260;10.988;2022-07-06T09:39:31;4.50;;;1.37;;
261;SDS011;114;48.260;10.988;2022-07-06T09:41:58;2.20;;;2.00;;
261;SDS011;114;48.260;10.988;2022-07-06T09:44:26;7.50;;;3.87;;
261;SDS011;114;48.260;10.988;2022-07-06T09:46:56;2.30;;;1.43;;
261;SDS011;114;48.260;10.988;2022-07-06T09:49:23;5.40;;;2.27;;
261;SDS011;114;48.260;10.988;2022-07-06T09:51:51;3.23;;;1.73;;
261;SDS011;114;48.260;10.988;2022-07-06T09:54:18;6.07;;;1.97;;
261;SDS011;114;48.260;10.988;2022-07-06T09:56:45;5.80;;;1.80;;
261;SDS011;114;48.260;10.988;2022-07-06T09:59:19;2.30;;;1.70;;
261;SDS011;114;48.260;10.988;2022-07-06T10:01:50;4.20;;;1.33;;
261;SDS011;114;48.260;10.988;2022-07-06T10:04:17;4.37;;;1.40;;
261;SDS011;114;48.260;10.988;2022-07-06T10:06:45;12.63;;;1.70;;
261;SDS011;114;48.260;10.988;2022-07-06T10:09:12;5.20;;;1.90;;
261;SDS011;114;48.260;10.988;2022-07-06T10:11:39;3.10;;;1.67;;
261;SDS011;114;48.260;10.988;2022-07-06T10:14:07;2.30;;;1.40;;
261;SDS011;114;48.260;10.988;2022-07-06T10:16:36;4.73;;;1.67;;
261;SDS011;114;48.260;10.988;2022-07-06T10:19:06;3.20;;;1.47;;
261;SDS011;114;48.260;10.988;2022-07-06T10:21:37;4.70;;;1.60;;
261;SDS011;114;48.260;10.988;2022-07-06T10:24:05;4.77;;;1.57;;
261;SDS011;114;48.260;10.988;2022-07-06T10:26:32;5.83;;;1.70;;
261;SDS011;114;48.260;10.988;2022-07-06T10:28:59;7.33;;;1.60;;
261;SDS011;114;48.260;10.988;2022-07-06T10:31:26;5.17;;;1.67;;
261;SDS011;114;48.260;10.988;2022-07-06T10:33:55;4.30;;;1.73;;
261;SDS011;114;48.260;10.988;2022-07-06T10:36:23;6.47;;;1.93;;
261;SDS011;114;48.260;10.988;2022-07-06T10:38:50;3.57;;;1.10;;
261;SDS011;114;48.260;10.988;2022-07-06T10:41:17;5.30;;;1.80;;
261;SDS011;114;48.260;10.988;2022-07-06T10:43:46;5.73;;;1.40;;
261;SDS011;114;48.260;10.988;2022-07-06T10:46:16;3.33;;;1.33;;
261;SDS011;114;48.260;10.988;2022-07-06T10:48:45;1.73;;;1.30;;
261;SDS011;114;48.260;10.988;2022-07-06T10:51:22;9.03;;;1.43;;
261;SDS011;114;48.260;10.988;2022-07-06T10:53:56;4.00;;;1.43;;
261;SDS011;114;48.260;10.988;2022-07-06T10:59:21;2.80;;;1.10;;
261;SDS011;114;48.260;10.988;2022-07-06T11:04:43;5.03;;;1.30;;
261;SDS011;114;48.260;10.988;2022-07-06T11:07:11;3.93;;;1.13;;
261;SDS011;114;48.260;10.988;2022-07-06T11:09:41;2.90;;;1.20;;
261;SDS011;114;48.260;10.988;2022-07-06T11:12:21;2.07;;;1.47;;
261;SDS011;114;48.260;10.988;2022-07-06T11:14:48;0.97;;;0.77;;
261;SDS011;114;48.260;10.988;2022-07-06T11:17:15;3.20;;;1.27;;
261;SDS011;114;48.260;10.988;2022-07-06T11:19:48;4.40;;;1.50;;
261;SDS011;114;48.260;10.988;2022-07-06T11:22:14;2.10;;;1.00;;
261;SDS011;114;48.260;10.988;2022-07-06T11:24:41;1.53;;;1.40;;
261;SDS011;114;48.260;10.988;2022-07-06T11:27:07;2.53;;;1.00;;
261;SDS011;114;48.260;10.988;2022-07-06T11:29:34;1.60;;;1.30;;
261;SDS011;114;48.260;10.988;2022-07-06T11:32:04;1.37;;;1.17;;
261;SDS011;114;48.260;10.988;2022-07-06T11:34:34;5.97;;;1.90;;
261;SDS011;114;48.260;10.988;2022-07-06T11:37:06;3.53;;;1.40;;
261;SDS011;114;48.260;10.988;2022-07-06T11:39:34;2.40;;;1.20;;
261;SDS011;114;48.260;10.988;2022-07-06T11:42:01;1.30;;;1.20;;
261;SDS011;114;48.260;10.988;2022-07-06T11:44:29;1.37;;;1.03;;
261;SDS011;114;48.260;10.988;2022-07-06T11:46:55;3.23;;;1.47;;
261;SDS011;114;48.260;10.988;2022-07-06T11:49:22;2.83;;;1.30;;
261;SDS011;114;48.260;10.988;2022-07-06T11:51:48;1.63;;;0.90;;
261;SDS011;114;48.260;10.988;2022-07-06T11:54:17;1.57;;;1.47;;
261;SDS011;114;48.260;10.988;2022-07-06T11:56:48;3.10;;;1.23;;
261;SDS011;114;48.260;10.988;2022-07-06T11:59:25;4.57;;;1.30;;
261;SDS011;114;48.260;10.988;2022-07-06T12:04:32;4.37;;;1.37;;
261;SDS011;114;48.260;10.988;2022-07-06T12:06:59;1.00;;;0.90;;
261;SDS011;114;48.260;10.988;2022-07-06T12:09:31;1.57;;;1.07;;
261;SDS011;114;48.260;10.988;2022-07-06T12:11:57;7.23;;;1.50;;
261;SDS011;114;48.260;10.988;2022-07-06T12:14:27;8.80;;;1.27;;
261;SDS011;114;48.260;10.988;2022-07-06T12:16:53;2.40;;;1.10;;
261;SDS011;114;48.260;10.988;2022-07-06T12:19:20;3.57;;;1.37;;
261;SDS011;114;48.260;10.988;2022-07-06T12:21:48;2.00;;;1.23;;
261;SDS011;114;48.260;10.988;2022-07-06T12:27:13;2.83;;;1.57;;
261;SDS011;114;48.260;10.988;2022-07-06T12:29:40;4.50;;;1.53;;
261;SDS011;114;48.260;10.988;2022-07-06T12:32:16;6.37;;;1.73;;
261;SDS011;114;48.260;10.988;2022-07-06T12:35:04;8.03;;;1.23;;
261;SDS011;114;48.260;10.988;2022-07-06T12:37:31;2.60;;;0.80;;
261;SDS011;114;48.260;10.988;2022-07-06T12:39:56;4.40;;;1.13;;
261;SDS011;114;48.260;10.988;2022-07-06T12:42:22;1.53;;;1.10;;
261;SDS011;114;48.260;10.988;2022-07-06T12:44:51;5.78;;;0.90;;
261;SDS011;114;48.260;10.988;2022-07-06T12:47:18;3.08;;;1.00;;
261;SDS011;114;48.260;10.988;2022-07-06T12:49:51;3.47;;;1.17;;
261;SDS011;114;48.260;10.988;2022-07-06T12:52:32;9.95;;;1.10;;
261;SDS011;114;48.260;10.988;2022-07-06T12:54:59;3.17;;;0.90;;
261;SDS011;114;48.260;10.988;2022-07-06T12:57:26;2.13;;;1.23;;
261;SDS011;114;48.260;10.988;2022-07-06T13:07:42;4.43;;;0.90;;
261;SDS011;114;48.260;10.988;2022-07-06T13:10:12;1.02;;;0.75;;
261;SDS011;114;48.260;10.988;2022-07-06T13:12:38;5.65;;;1.02;;
261;SDS011;114;48.260;10.988;2022-07-06T13:15:06;3.00;;;0.80;;
261;SDS011;114;48.260;10.988;2022-07-06T13:17:33;4.38;;;1.15;;
261;SDS011;114;48.260;10.988;2022-07-06T13:20:00;3.33;;;0.55;;
261;SDS011;114;48.260;10.988;2022-07-06T13:22:26;2.88;;;0.93;;
261;SDS011;114;48.260;10.988;2022-07-06T13:24:52;3.15;;;0.93;;
261;SDS011;114;48.260;10.988;2022-07-06T13:27:17;1.70;;;0.95;;
261;SDS011;114;48.260;10.988;2022-07-06T13:29:43;2.30;;;1.17;;
261;SDS011;114;48.260;10.988;2022-07-06T13:32:09;4.05;;;0.80;;
261;SDS011;114;48.260;10.988;2022-07-06T13:34:35;4.70;;;0.85;;
261;SDS011;114;48.260;10.988;2022-07-06T13:37:01;2.88;;;0.55;;
261;SDS011;114;48.260;10.988;2022-07-06T13:39:28;0.75;;;0.57;;
261;SDS011;114;48.260;10.988;2022-07-06T13:41:54;1.48;;;0.63;;
261;SDS011;114;48.260;10.988;2022-07-06T13:44:20;2.05;;;0.70;;
261;SDS011;114;48.260;10.988;2022-07-06T13:46:46;1.80;;;0.60;;
261;SDS011;114;48.260;10.988;2022-07-06T13:49:12;2.33;;;0.73;;
261;SDS011;114;48.260;10.988;2022-07-06T13:51:41;6.18;;;0.70;;
261;SDS011;114;48.260;10.988;2022-07-06T13:54:07;3.00;;;0.60;;
261;SDS011;114;48.260;10.988;2022-07-06T13:56:34;0.95;;;0.52;;
261;SDS011;114;48.260;10.988;2022-07-06T13:59:00;3.63;;;0.88;;
261;SDS011;114;48.260;10.988;2022-07-06T14:01:26;7.35;;;0.80;;
261;SDS011;114;48.260;10.988;2022-07-06T14:03:51;2.15;;;0.60;;
261;SDS011;114;48.260;10.988;2022-07-06T14:06:18;1.67;;;0.60;;
261;SDS011;114;48.260;10.988;2022-07-06T14:08:45;1.42;;;0.80;;
261;SDS011;114;48.260;10.988;2022-07-06T14:11:10;4.85;;;0.57;;
261;SDS011;114;48.260;10.988;2022-07-06T14:13:37;5.55;;;0.80;;
261;SDS011;114;48.260;10.988;2022-07-06T14:16:05;6.13;;;0.90;;
261;SDS011;114;48.260;10.988;2022-07-06T14:18:32;5.45;;;0.70;;
261;SDS011;114;48.260;10.988;2022-07-06T14:20:58;3.05;;;0.60;;
261;SDS011;114;48.260;10.988;2022-07-06T14:23:25;2.22;;;0.93;;
261;SDS011;114;48.260;10.988;2022-07-06T14:25:51;2.50;;;0.98;;
261;SDS011;114;48.260;10.988;2022-07-06T14:28:19;1.50;;;0.60;;
261;SDS011;114;48.260;10.988;2022-07-06T14:30:45;6.10;;;0.70;;
261;SDS011;114;48.260;10.988;2022-07-06T14:33:11;2.25;;;0.60;;
261;SDS011;114;48.260;10.988;2022-07-06T14:35:41;1.83;;;0.70;;
261;SDS011;114;48.260;10.988;2022-07-06T14:38:09;1.00;;;0.60;;
261;SDS011;114;48.260;10.988;2022-07-06T14:40:35;1.92;;;0.80;;
261;SDS011;114;48.260;10.988;2022-07-06T14:43:02;1.55;;;0.85;;
261;SDS011;114;48.260;10.988;2022-07-06T14:45:28;6.57;;;0.95;;
261;SDS011;114;48.260;10.988;2022-07-06T14:47:57;1.70;;;0.70;;
261;SDS011;114;48.260;10.988;2022-07-06T14:50:26;4.55;;;0.85;;
261;SDS011;114;48.260;10.988;2022-07-06T14:52:52;2.17;;;0.82;;
261;SDS011;114;48.260;10.988;2022-07-06T14:55:19;1.42;;;0.65;;
261;SDS011;114;48.260;10.988;2022-07-06T14:57:45;5.47;;;0.90;;
261;SDS011;114;48.260;10.988;2022-07-06T15:00:12;1.35;;;0.60;;
261;SDS011;114;48.260;10.988;2022-07-06T15:02:38;1.75;;;0.70;;
261;SDS011;114;48.260;10.988;2022-07-06T15:05:04;1.50;;;0.73;;
261;SDS011;114;48.260;10.988;2022-07-06T15:07:30;1.17;;;0.63;;
261;SDS011;114;48.260;10.988;2022-07-06T15:09:56;3.20;;;0.60;;
261;SDS011;114;48.260;10.988;2022-07-06T15:12:22;2.75;;;0.60;;
261;SDS011;114;48.260;10.988;2022-07-06T15:14:48;1.13;;;0.60;;
261;SDS011;114;48.260;10.988;2022-07-06T15:17:14;6.95;;;0.98;;
261;SDS011;114;48.260;10.988;2022-07-06T15:19:41;2.97;;;0.70;;
261;SDS011;114;48.260;10.988;2022-07-06T15:22:08;3.00;;;0.70;;
261;SDS011;114;48.260;10.988;2022-07-06T15:24:34;1.40;;;0.70;;
261;SDS011;114;48.260;10.988;2022-07-06T15:27:01;2.28;;;0.73;;
261;SDS011;114;48.260;10.988;2022-07-06T15:29:28;4.63;;;0.90;;
261;SDS011;114;48.260;10.988;2022-07-06T15:31:57;5.00;;;0.80;;
261;SDS011;114;48.260;10.988;2022-07-06T15:34:22;2.47;;;0.85;;
261;SDS011;114;48.260;10.988;2022-07-06T15:36:48;1.70;;;0.75;;
261;SDS011;114;48.260;10.988;2022-07-06T15:39:15;1.42;;;0.70;;
261;SDS011;114;48.260;10.988;2022-07-06T15:41:41;2.60;;;0.80;;
261;SDS011;114;48.260;10.988;2022-07-06T15:44:07;2.63;;;0.70;;
261;SDS011;114;48.260;10.988;2022-07-06T15:46:33;1.90;;;0.80;;
261;SDS011;114;48.260;10.988;2022-07-06T15:48:59;1.17;;;0.70;;